sensor_id;sensor_type;location;lat;lon;timestamp;P1;durP1;ratioP1;P2;durP2;ratioP2
13720;SDS011;6932;51.438;5.470;2023-08-24T00:02:11;7.13;;;4.30;;
13720;SDS011;6932;51.438;5.470;2023-08-24T00:04:37;6.23;;;4.17;;
13720;SDS011;6932;51.438;5.470;2023-08-24T00:07:03;6.23;;;4.10;;
13720;SDS011;6932;51.438;5.470;2023-08-24T00:09:29;6.17;;;3.80;;
13720;SDS011;6932;51.438;5.470;2023-08-24T00:11:54;8.10;;;4.67;;
13720;SDS011;6932;51.438;5.470;2023-08-24T00:14:20;8.40;;;4.30;;
13720;SDS011;6932;51.438;5.470;2023-08-24T00:16:46;8.20;;;4.40;;
13720;SDS011;6932;51.438;5.470;2023-08-24T00:19:12;6.93;;;4.20;;
13720;SDS011;6932;51.438;5.470;2023-08-24T00:21:38;6.97;;;4.00;;
13720;SDS011;6932;51.438;5.470;2023-08-24T00:24:04;5.40;;;4.00;;
13720;SDS011;6932;51.438;5.470;2023-08-24T00:26:30;7.03;;;4.27;;
13720;SDS011;6932;51.438;5.470;2023-08-24T00:28:55;6.40;;;4.20;;
13720;SDS011;6932;51.438;5.470;2023-08-24T00:31:21;8.13;;;4.20;;
13720;SDS011;6932;51.438;5.470;2023-08-24T00:33:47;6.83;;;3.97;;
13720;SDS011;6932;51.438;5.470;2023-08-24T00:36:15;6.30;;;3.80;;
13720;SDS011;6932;51.438;5.470;2023-08-24T00:38:42;7.60;;;4.20;;
13720;SDS011;6932;51.438;5.470;2023-08-24T00:41:08;7.50;;;4.40;;
13720;SDS011;6932;51.438;5.470;2023-08-24T00:43:34;5.37;;;3.80;;
13720;SDS011;6932;51.438;5.470;2023-08-24T00:46:01;7.53;;;3.90;;
13720;SDS011;6932;51.438;5.470;2023-08-24T00:48:29;8.07;;;4.50;;
13720;SDS011;6932;51.438;5.470;2023-08-24T00:50:57;7.67;;;4.03;;
13720;SDS011;6932;51.438;5.470;2023-08-24T00:53:26;5.83;;;4.40;;
13720;SDS011;6932;51.438;5.470;2023-08-24T00:55:55;8.83;;;4.27;;
13720;SDS011;6932;51.438;5.470;2023-08-24T00:58:20;6.43;;;4.13;;
13720;SDS011;6932;51.438;5.470;2023-08-24T01:00:51;7.70;;;4.20;;
13720;SDS011;6932;51.438;5.470;2023-08-24T01:03:19;6.27;;;3.80;;
13720;SDS011;6932;51.438;5.470;2023-08-24T01:05:48;7.27;;;4.27;;
13720;SDS011;6932;51.438;5.470;2023-08-24T01:08:14;6.17;;;4.00;;
13720;SDS011;6932;51.438;5.470;2023-08-24T01:10:44;7.17;;;4.27;;
13720;SDS011;6932;51.438;5.470;2023-08-24T01:13:18;7.67;;;4.70;;
13720;SDS011;6932;51.438;5.470;2023-08-24T01:15:57;7.53;;;4.27;;
13720;SDS011;6932;51.438;5.470;2023-08-24T01:18:35;7.53;;;4.57;;
13720;SDS011;6932;51.438;5.470;2023-08-24T01:21:03;9.00;;;4.77;;
13720;SDS011;6932;51.438;5.470;2023-08-24T01:23:36;7.37;;;4.67;;
13720;SDS011;6932;51.438;5.470;2023-08-24T01:26:14;6.87;;;4.77;;
13720;SDS011;6932;51.438;5.470;2023-08-24T01:28:51;8.97;;;4.70;;
13720;SDS011;6932;51.438;5.470;2023-08-24T01:35:03;8.10;;;4.40;;
13720;SDS011;6932;51.438;5.470;2023-08-24T01:37:34;6.93;;;4.90;;
13720;SDS011;6932;51.438;5.470;2023-08-24T01:40:07;11.33;;;4.97;;
13720;SDS011;6932;51.438;5.470;2023-08-24T01:43:12;7.90;;;4.87;;
13720;SDS011;6932;51.438;5.470;2023-08-24T01:45:40;9.03;;;5.33;;
13720;SDS011;6932;51.438;5.470;2023-08-24T01:48:09;7.63;;;4.17;;
13720;SDS011;6932;51.438;5.470;2023-08-24T01:50:35;8.57;;;5.23;;
13720;SDS011;6932;51.438;5.470;2023-08-24T01:53:01;7.93;;;5.03;;
13720;SDS011;6932;51.438;5.470;2023-08-24T01:55:28;7.70;;;5.10;;
13720;SDS011;6932;51.438;5.470;2023-08-24T01:57:55;9.17;;;5.60;;
13720;SDS011;6932;51.438;5.470;2023-08-24T02:00:21;8.00;;;5.20;;
13720;SDS011;6932;51.438;5.470;2023-08-24T02:02:47;7.10;;;4.43;;
13720;SDS011;6932;51.438;5.470;2023-08-24T02:05:13;7.57;;;5.00;;
13720;SDS011;6932;51.438;5.470;2023-08-24T02:07:39;8.43;;;5.00;;
13720;SDS011;6932;51.438;5.470;2023-08-24T02:10:05;8.80;;;5.20;;
13720;SDS011;6932;51.438;5.470;2023-08-24T02:12:32;8.53;;;5.23;;
13720;SDS011;6932;51.438;5.470;2023-08-24T02:14:58;9.03;;;5.53;;
13720;SDS011;6932;51.438;5.470;2023-08-24T02:17:24;9.17;;;5.60;;
13720;SDS011;6932;51.438;5.470;2023-08-24T02:19:51;10.00;;;5.57;;
13720;SDS011;6932;51.438;5.470;2023-08-24T02:22:17;7.80;;;5.03;;
13720;SDS011;6932;51.438;5.470;2023-08-24T02:24:43;9.07;;;5.70;;
13720;SDS011;6932;51.438;5.470;2023-08-24T02:27:08;8.83;;;5.57;;
13720;SDS011;6932;51.438;5.470;2023-08-24T02:29:34;9.23;;;5.70;;
13720;SDS011;6932;51.438;5.470;2023-08-24T02:32:00;11.17;;;5.73;;
13720;SDS011;6932;51.438;5.470;2023-08-24T02:34:26;8.70;;;5.73;;
13720;SDS011;6932;51.438;5.470;2023-08-24T02:36:52;7.93;;;5.50;;
13720;SDS011;6932;51.438;5.470;2023-08-24T02:39:18;10.23;;;5.63;;
13720;SDS011;6932;51.438;5.470;2023-08-24T02:41:43;10.87;;;5.70;;
13720;SDS011;6932;51.438;5.470;2023-08-24T02:44:09;10.50;;;5.60;;
13720;SDS011;6932;51.438;5.470;2023-08-24T02:46:35;9.63;;;5.60;;
13720;SDS011;6932;51.438;5.470;2023-08-24T02:49:01;9.20;;;5.90;;
13720;SDS011;6932;51.438;5.470;2023-08-24T02:51:26;8.23;;;5.60;;
13720;SDS011;6932;51.438;5.470;2023-08-24T02:53:52;9.63;;;5.83;;
13720;SDS011;6932;51.438;5.470;2023-08-24T02:56:18;8.83;;;6.00;;
13720;SDS011;6932;51.438;5.470;2023-08-24T02:58:43;8.97;;;5.83;;
13720;SDS011;6932;51.438;5.470;2023-08-24T03:01:09;11.37;;;6.23;;
13720;SDS011;6932;51.438;5.470;2023-08-24T03:03:35;11.73;;;6.50;;
13720;SDS011;6932;51.438;5.470;2023-08-24T03:06:03;9.20;;;6.20;;
13720;SDS011;6932;51.438;5.470;2023-08-24T03:08:31;10.13;;;6.20;;
13720;SDS011;6932;51.438;5.470;2023-08-24T03:10:58;11.30;;;6.50;;
13720;SDS011;6932;51.438;5.470;2023-08-24T03:13:25;14.03;;;6.30;;
13720;SDS011;6932;51.438;5.470;2023-08-24T03:15:52;9.60;;;6.70;;
13720;SDS011;6932;51.438;5.470;2023-08-24T03:18:19;12.73;;;6.50;;
13720;SDS011;6932;51.438;5.470;2023-08-24T03:20:45;12.33;;;7.47;;
13720;SDS011;6932;51.438;5.470;2023-08-24T03:23:13;8.77;;;5.93;;
13720;SDS011;6932;51.438;5.470;2023-08-24T03:25:40;11.63;;;7.17;;
13720;SDS011;6932;51.438;5.470;2023-08-24T03:28:07;10.80;;;6.87;;
13720;SDS011;6932;51.438;5.470;2023-08-24T03:30:35;11.23;;;7.10;;
13720;SDS011;6932;51.438;5.470;2023-08-24T03:33:03;10.37;;;6.97;;
13720;SDS011;6932;51.438;5.470;2023-08-24T03:35:32;11.53;;;7.57;;
13720;SDS011;6932;51.438;5.470;2023-08-24T03:37:58;9.50;;;6.80;;
13720;SDS011;6932;51.438;5.470;2023-08-24T03:40:25;11.27;;;7.33;;
13720;SDS011;6932;51.438;5.470;2023-08-24T03:42:51;11.33;;;7.53;;
13720;SDS011;6932;51.438;5.470;2023-08-24T03:45:18;11.07;;;7.50;;
13720;SDS011;6932;51.438;5.470;2023-08-24T03:47:44;11.07;;;7.50;;
13720;SDS011;6932;51.438;5.470;2023-08-24T03:50:10;10.97;;;7.80;;
13720;SDS011;6932;51.438;5.470;2023-08-24T03:52:36;14.10;;;8.27;;
13720;SDS011;6932;51.438;5.470;2023-08-24T03:55:04;13.37;;;8.20;;
13720;SDS011;6932;51.438;5.470;2023-08-24T03:57:31;12.10;;;8.40;;
13720;SDS011;6932;51.438;5.470;2023-08-24T03:59:57;13.00;;;8.67;;
13720;SDS011;6932;51.438;5.470;2023-08-24T04:02:23;12.87;;;8.90;;
13720;SDS011;6932;51.438;5.470;2023-08-24T04:04:50;14.10;;;8.67;;
13720;SDS011;6932;51.438;5.470;2023-08-24T04:07:16;15.03;;;9.33;;
13720;SDS011;6932;51.438;5.470;2023-08-24T04:09:42;13.50;;;9.13;;
13720;SDS011;6932;51.438;5.470;2023-08-24T04:12:07;11.63;;;8.80;;
13720;SDS011;6932;51.438;5.470;2023-08-24T04:14:33;11.90;;;8.53;;
13720;SDS011;6932;51.438;5.470;2023-08-24T04:16:59;14.47;;;9.97;;
13720;SDS011;6932;51.438;5.470;2023-08-24T04:19:25;14.87;;;9.37;;
13720;SDS011;6932;51.438;5.470;2023-08-24T04:21:50;13.67;;;8.90;;
13720;SDS011;6932;51.438;5.470;2023-08-24T04:24:16;12.50;;;9.10;;
13720;SDS011;6932;51.438;5.470;2023-08-24T04:26:42;13.90;;;9.17;;
13720;SDS011;6932;51.438;5.470;2023-08-24T04:29:08;12.70;;;8.60;;
13720;SDS011;6932;51.438;5.470;2023-08-24T04:31:33;12.93;;;9.50;;
13720;SDS011;6932;51.438;5.470;2023-08-24T04:34:00;15.00;;;9.00;;
13720;SDS011;6932;51.438;5.470;2023-08-24T04:36:26;13.60;;;8.77;;
13720;SDS011;6932;51.438;5.470;2023-08-24T04:38:51;12.57;;;8.60;;
13720;SDS011;6932;51.438;5.470;2023-08-24T04:41:17;13.63;;;9.53;;
13720;SDS011;6932;51.438;5.470;2023-08-24T04:43:43;12.33;;;9.30;;
13720;SDS011;6932;51.438;5.470;2023-08-24T04:46:08;13.17;;;9.60;;
13720;SDS011;6932;51.438;5.470;2023-08-24T04:48:34;14.60;;;10.00;;
13720;SDS011;6932;51.438;5.470;2023-08-24T04:51:00;14.17;;;9.47;;
13720;SDS011;6932;51.438;5.470;2023-08-24T04:53:27;12.80;;;9.37;;
13720;SDS011;6932;51.438;5.470;2023-08-24T04:55:53;15.27;;;10.30;;
13720;SDS011;6932;51.438;5.470;2023-08-24T04:58:19;15.57;;;10.80;;
13720;SDS011;6932;51.438;5.470;2023-08-24T05:00:45;13.93;;;9.93;;
13720;SDS011;6932;51.438;5.470;2023-08-24T05:03:11;13.53;;;9.90;;
13720;SDS011;6932;51.438;5.470;2023-08-24T05:05:37;15.20;;;10.03;;
13720;SDS011;6932;51.438;5.470;2023-08-24T05:08:03;12.53;;;9.33;;
13720;SDS011;6932;51.438;5.470;2023-08-24T05:10:32;14.87;;;10.23;;
13720;SDS011;6932;51.438;5.470;2023-08-24T05:12:59;14.37;;;10.20;;
13720;SDS011;6932;51.438;5.470;2023-08-24T05:15:25;16.80;;;10.53;;
13720;SDS011;6932;51.438;5.470;2023-08-24T05:17:52;16.63;;;10.77;;
13720;SDS011;6932;51.438;5.470;2023-08-24T05:20:20;13.73;;;10.43;;
13720;SDS011;6932;51.438;5.470;2023-08-24T05:22:47;16.03;;;10.83;;
13720;SDS011;6932;51.438;5.470;2023-08-24T05:25:13;14.77;;;10.13;;
13720;SDS011;6932;51.438;5.470;2023-08-24T05:27:39;17.63;;;10.70;;
13720;SDS011;6932;51.438;5.470;2023-08-24T05:30:05;15.10;;;10.77;;
13720;SDS011;6932;51.438;5.470;2023-08-24T05:32:32;14.33;;;10.30;;
13720;SDS011;6932;51.438;5.470;2023-08-24T05:34:57;15.43;;;10.47;;
13720;SDS011;6932;51.438;5.470;2023-08-24T05:37:23;15.13;;;10.93;;
13720;SDS011;6932;51.438;5.470;2023-08-24T05:39:49;12.60;;;9.67;;
13720;SDS011;6932;51.438;5.470;2023-08-24T05:42:15;14.97;;;10.70;;
13720;SDS011;6932;51.438;5.470;2023-08-24T05:44:41;14.40;;;10.30;;
13720;SDS011;6932;51.438;5.470;2023-08-24T05:47:06;14.40;;;10.70;;
13720;SDS011;6932;51.438;5.470;2023-08-24T05:49:32;14.97;;;9.87;;
13720;SDS011;6932;51.438;5.470;2023-08-24T05:51:58;14.50;;;10.63;;
13720;SDS011;6932;51.438;5.470;2023-08-24T05:54:24;16.13;;;10.63;;
13720;SDS011;6932;51.438;5.470;2023-08-24T05:56:49;18.10;;;11.13;;
13720;SDS011;6932;51.438;5.470;2023-08-24T05:59:15;18.10;;;10.50;;
13720;SDS011;6932;51.438;5.470;2023-08-24T06:01:41;15.97;;;10.50;;
13720;SDS011;6932;51.438;5.470;2023-08-24T06:04:10;15.70;;;10.83;;
13720;SDS011;6932;51.438;5.470;2023-08-24T06:06:36;15.77;;;10.37;;
13720;SDS011;6932;51.438;5.470;2023-08-24T06:09:03;15.03;;;10.73;;
13720;SDS011;6932;51.438;5.470;2023-08-24T06:11:32;13.33;;;10.43;;
13720;SDS011;6932;51.438;5.470;2023-08-24T06:13:58;14.60;;;10.07;;
13720;SDS011;6932;51.438;5.470;2023-08-24T06:16:24;14.53;;;10.63;;
13720;SDS011;6932;51.438;5.470;2023-08-24T06:18:49;15.30;;;9.87;;
13720;SDS011;6932;51.438;5.470;2023-08-24T06:21:16;14.73;;;10.17;;
13720;SDS011;6932;51.438;5.470;2023-08-24T06:23:42;13.93;;;10.13;;
13720;SDS011;6932;51.438;5.470;2023-08-24T06:26:09;13.97;;;10.37;;
13720;SDS011;6932;51.438;5.470;2023-08-24T06:28:34;13.67;;;9.97;;
13720;SDS011;6932;51.438;5.470;2023-08-24T06:31:00;12.63;;;8.53;;
13720;SDS011;6932;51.438;5.470;2023-08-24T06:33:27;13.37;;;8.77;;
13720;SDS011;6932;51.438;5.470;2023-08-24T06:35:56;14.77;;;10.60;;
13720;SDS011;6932;51.438;5.470;2023-08-24T06:38:22;12.83;;;9.77;;
13720;SDS011;6932;51.438;5.470;2023-08-24T06:40:48;11.50;;;7.53;;
13720;SDS011;6932;51.438;5.470;2023-08-24T06:43:14;13.50;;;9.50;;
13720;SDS011;6932;51.438;5.470;2023-08-24T06:45:40;14.37;;;8.90;;
13720;SDS011;6932;51.438;5.470;2023-08-24T06:48:06;12.17;;;9.20;;
13720;SDS011;6932;51.438;5.470;2023-08-24T06:50:32;11.40;;;7.93;;
13720;SDS011;6932;51.438;5.470;2023-08-24T06:52:58;9.83;;;6.67;;
13720;SDS011;6932;51.438;5.470;2023-08-24T06:55:25;9.53;;;7.00;;
13720;SDS011;6932;51.438;5.470;2023-08-24T06:57:52;10.93;;;7.47;;
13720;SDS011;6932;51.438;5.470;2023-08-24T07:00:20;13.73;;;8.40;;
13720;SDS011;6932;51.438;5.470;2023-08-24T07:02:48;11.75;;;8.50;;
13720;SDS011;6932;51.438;5.470;2023-08-24T07:05:14;12.30;;;9.30;;
13720;SDS011;6932;51.438;5.470;2023-08-24T07:07:44;12.77;;;8.98;;
13720;SDS011;6932;51.438;5.470;2023-08-24T07:10:10;12.85;;;8.43;;
13720;SDS011;6932;51.438;5.470;2023-08-24T07:12:37;12.85;;;8.77;;
13720;SDS011;6932;51.438;5.470;2023-08-24T07:15:06;11.13;;;7.78;;
13720;SDS011;6932;51.438;5.470;2023-08-24T07:17:32;11.45;;;7.50;;
13720;SDS011;6932;51.438;5.470;2023-08-24T07:19:59;10.85;;;7.93;;
13720;SDS011;6932;51.438;5.470;2023-08-24T07:22:25;10.70;;;7.32;;
13720;SDS011;6932;51.438;5.470;2023-08-24T07:24:51;9.73;;;6.88;;
13720;SDS011;6932;51.438;5.470;2023-08-24T07:27:18;11.32;;;7.55;;
13720;SDS011;6932;51.438;5.470;2023-08-24T07:29:44;10.35;;;6.72;;
13720;SDS011;6932;51.438;5.470;2023-08-24T07:32:10;10.85;;;6.88;;
13720;SDS011;6932;51.438;5.470;2023-08-24T07:34:35;9.68;;;6.35;;
13720;SDS011;6932;51.438;5.470;2023-08-24T07:37:01;10.20;;;6.75;;
13720;SDS011;6932;51.438;5.470;2023-08-24T07:39:27;11.43;;;6.88;;
13720;SDS011;6932;51.438;5.470;2023-08-24T07:41:53;9.20;;;6.03;;
13720;SDS011;6932;51.438;5.470;2023-08-24T07:44:19;13.10;;;6.95;;
13720;SDS011;6932;51.438;5.470;2023-08-24T07:46:46;10.50;;;6.50;;
13720;SDS011;6932;51.438;5.470;2023-08-24T07:49:13;9.55;;;5.97;;
13720;SDS011;6932;51.438;5.470;2023-08-24T07:51:39;11.30;;;7.28;;
13720;SDS011;6932;51.438;5.470;2023-08-24T07:54:05;9.82;;;5.97;;
13720;SDS011;6932;51.438;5.470;2023-08-24T07:56:32;9.10;;;5.57;;
13720;SDS011;6932;51.438;5.470;2023-08-24T07:58:58;9.05;;;5.82;;
13720;SDS011;6932;51.438;5.470;2023-08-24T08:01:24;11.10;;;6.03;;
13720;SDS011;6932;51.438;5.470;2023-08-24T08:03:49;8.27;;;5.72;;
13720;SDS011;6932;51.438;5.470;2023-08-24T08:06:15;9.18;;;5.97;;
13720;SDS011;6932;51.438;5.470;2023-08-24T08:08:41;9.23;;;6.00;;
13720;SDS011;6932;51.438;5.470;2023-08-24T08:11:07;8.38;;;5.70;;
13720;SDS011;6932;51.438;5.470;2023-08-24T08:13:32;9.10;;;5.47;;
13720;SDS011;6932;51.438;5.470;2023-08-24T08:16:02;8.95;;;5.38;;
13720;SDS011;6932;51.438;5.470;2023-08-24T08:18:30;9.60;;;5.40;;
13720;SDS011;6932;51.438;5.470;2023-08-24T08:21:00;8.82;;;5.38;;
13720;SDS011;6932;51.438;5.470;2023-08-24T08:23:36;9.65;;;5.68;;
13720;SDS011;6932;51.438;5.470;2023-08-24T08:26:02;9.73;;;5.57;;
13720;SDS011;6932;51.438;5.470;2023-08-24T08:28:28;10.23;;;5.57;;
13720;SDS011;6932;51.438;5.470;2023-08-24T08:30:54;8.90;;;5.30;;
13720;SDS011;6932;51.438;5.470;2023-08-24T08:33:20;10.82;;;5.22;;
13720;SDS011;6932;51.438;5.470;2023-08-24T08:35:46;8.05;;;4.90;;
13720;SDS011;6932;51.438;5.470;2023-08-24T08:38:12;8.32;;;4.60;;
13720;SDS011;6932;51.438;5.470;2023-08-24T08:40:38;12.57;;;5.50;;
13720;SDS011;6932;51.438;5.470;2023-08-24T08:43:06;10.13;;;5.72;;
13720;SDS011;6932;51.438;5.470;2023-08-24T08:45:31;11.68;;;5.57;;
13720;SDS011;6932;51.438;5.470;2023-08-24T08:47:59;8.25;;;5.55;;
13720;SDS011;6932;51.438;5.470;2023-08-24T08:50:26;8.77;;;5.65;;
13720;SDS011;6932;51.438;5.470;2023-08-24T08:52:52;9.60;;;5.68;;
13720;SDS011;6932;51.438;5.470;2023-08-24T08:55:18;8.05;;;5.22;;
13720;SDS011;6932;51.438;5.470;2023-08-24T08:57:47;10.23;;;5.57;;
13720;SDS011;6932;51.438;5.470;2023-08-24T09:00:17;12.43;;;5.40;;
13720;SDS011;6932;51.438;5.470;2023-08-24T09:02:44;10.10;;;5.38;;
13720;SDS011;6932;51.438;5.470;2023-08-24T09:05:14;11.52;;;5.30;;
13720;SDS011;6932;51.438;5.470;2023-08-24T09:07:40;10.25;;;5.60;;
13720;SDS011;6932;51.438;5.470;2023-08-24T09:10:07;8.82;;;5.03;;
13720;SDS011;6932;51.438;5.470;2023-08-24T09:12:34;8.50;;;5.10;;
13720;SDS011;6932;51.438;5.470;2023-08-24T09:15:06;10.25;;;4.78;;
13720;SDS011;6932;51.438;5.470;2023-08-24T09:17:33;9.40;;;5.25;;
13720;SDS011;6932;51.438;5.470;2023-08-24T09:19:59;11.23;;;5.57;;
13720;SDS011;6932;51.438;5.470;2023-08-24T09:22:35;7.53;;;5.25;;
13720;SDS011;6932;51.438;5.470;2023-08-24T09:25:02;9.70;;;5.40;;
13720;SDS011;6932;51.438;5.470;2023-08-24T09:27:31;6.90;;;4.97;;
13720;SDS011;6932;51.438;5.470;2023-08-24T09:29:57;8.30;;;4.88;;
13720;SDS011;6932;51.438;5.470;2023-08-24T09:32:29;8.40;;;4.40;;
13720;SDS011;6932;51.438;5.470;2023-08-24T09:35:03;7.88;;;4.80;;
13720;SDS011;6932;51.438;5.470;2023-08-24T09:37:39;8.73;;;4.82;;
13720;SDS011;6932;51.438;5.470;2023-08-24T09:40:07;9.75;;;4.90;;
13720;SDS011;6932;51.438;5.470;2023-08-24T09:42:42;8.77;;;4.85;;
13720;SDS011;6932;51.438;5.470;2023-08-24T09:45:12;8.73;;;5.00;;
13720;SDS011;6932;51.438;5.470;2023-08-24T09:47:39;8.65;;;4.43;;
13720;SDS011;6932;51.438;5.470;2023-08-24T09:50:10;11.38;;;5.00;;
13720;SDS011;6932;51.438;5.470;2023-08-24T09:52:36;9.20;;;4.15;;
13720;SDS011;6932;51.438;5.470;2023-08-24T09:55:06;8.38;;;4.10;;
13720;SDS011;6932;51.438;5.470;2023-08-24T09:57:37;6.45;;;4.13;;
13720;SDS011;6932;51.438;5.470;2023-08-24T10:00:08;9.98;;;4.20;;
13720;SDS011;6932;51.438;5.470;2023-08-24T10:02:47;6.38;;;3.65;;
13720;SDS011;6932;51.438;5.470;2023-08-24T10:05:25;7.82;;;3.85;;
13720;SDS011;6932;51.438;5.470;2023-08-24T10:07:53;7.07;;;3.40;;
13720;SDS011;6932;51.438;5.470;2023-08-24T10:10:22;6.10;;;3.58;;
13720;SDS011;6932;51.438;5.470;2023-08-24T10:12:54;6.13;;;3.85;;
13720;SDS011;6932;51.438;5.470;2023-08-24T10:15:26;6.50;;;3.78;;
13720;SDS011;6932;51.438;5.470;2023-08-24T10:17:52;5.20;;;3.80;;
13720;SDS011;6932;51.438;5.470;2023-08-24T10:20:20;8.35;;;4.00;;
13720;SDS011;6932;51.438;5.470;2023-08-24T10:22:47;7.80;;;4.00;;
13720;SDS011;6932;51.438;5.470;2023-08-24T10:25:15;9.63;;;4.55;;
13720;SDS011;6932;51.438;5.470;2023-08-24T10:27:43;7.18;;;4.20;;
13720;SDS011;6932;51.438;5.470;2023-08-24T10:30:13;8.52;;;4.20;;
13720;SDS011;6932;51.438;5.470;2023-08-24T10:32:40;10.40;;;4.20;;
13720;SDS011;6932;51.438;5.470;2023-08-24T10:35:08;8.02;;;4.88;;
13720;SDS011;6932;51.438;5.470;2023-08-24T10:37:34;9.43;;;4.22;;
13720;SDS011;6932;51.438;5.470;2023-08-24T10:40:00;8.65;;;4.85;;
13720;SDS011;6932;51.438;5.470;2023-08-24T10:42:26;9.25;;;4.60;;
13720;SDS011;6932;51.438;5.470;2023-08-24T10:44:53;6.80;;;4.68;;
13720;SDS011;6932;51.438;5.470;2023-08-24T10:47:22;7.78;;;4.75;;
13720;SDS011;6932;51.438;5.470;2023-08-24T10:54:56;5.90;;;4.10;;
13720;SDS011;6932;51.438;5.470;2023-08-24T10:57:25;10.95;;;4.78;;
13720;SDS011;6932;51.438;5.470;2023-08-24T11:00:07;6.53;;;4.45;;
13720;SDS011;6932;51.438;5.470;2023-08-24T11:05:21;8.00;;;4.53;;
13720;SDS011;6932;51.438;5.470;2023-08-24T11:08:03;7.43;;;4.10;;
13720;SDS011;6932;51.438;5.470;2023-08-24T11:13:09;8.43;;;5.40;;
13720;SDS011;6932;51.438;5.470;2023-08-24T11:15:42;7.07;;;5.10;;
13720;SDS011;6932;51.438;5.470;2023-08-24T11:20:47;9.00;;;5.78;;
13720;SDS011;6932;51.438;5.470;2023-08-24T11:23:20;7.75;;;5.03;;
13720;SDS011;6932;51.438;5.470;2023-08-24T11:25:49;9.82;;;4.97;;
13720;SDS011;6932;51.438;5.470;2023-08-24T11:28:21;8.63;;;4.65;;
13720;SDS011;6932;51.438;5.470;2023-08-24T11:30:49;7.72;;;4.45;;
13720;SDS011;6932;51.438;5.470;2023-08-24T11:33:30;9.35;;;4.55;;
13720;SDS011;6932;51.438;5.470;2023-08-24T11:35:59;8.88;;;4.57;;
13720;SDS011;6932;51.438;5.470;2023-08-24T11:38:45;7.45;;;4.40;;
13720;SDS011;6932;51.438;5.470;2023-08-24T11:41:15;6.75;;;4.50;;
13720;SDS011;6932;51.438;5.470;2023-08-24T11:43:43;9.20;;;4.30;;
13720;SDS011;6932;51.438;5.470;2023-08-24T11:46:12;8.93;;;4.47;;
13720;SDS011;6932;51.438;5.470;2023-08-24T11:48:40;7.78;;;4.10;;
13720;SDS011;6932;51.438;5.470;2023-08-24T11:51:09;7.38;;;4.70;;
13720;SDS011;6932;51.438;5.470;2023-08-24T11:53:38;6.65;;;4.03;;
13720;SDS011;6932;51.438;5.470;2023-08-24T11:56:09;7.93;;;4.22;;
13720;SDS011;6932;51.438;5.470;2023-08-24T11:58:38;6.65;;;3.88;;
13720;SDS011;6932;51.438;5.470;2023-08-24T12:01:05;7.25;;;4.53;;
13720;SDS011;6932;51.438;5.470;2023-08-24T12:03:32;7.18;;;4.45;;
13720;SDS011;6932;51.438;5.470;2023-08-24T12:06:00;6.72;;;4.47;;
13720;SDS011;6932;51.438;5.470;2023-08-24T12:08:28;6.57;;;4.30;;
13720;SDS011;6932;51.438;5.470;2023-08-24T12:10:54;7.80;;;4.10;;
13720;SDS011;6932;51.438;5.470;2023-08-24T12:13:20;6.82;;;4.38;;
13720;SDS011;6932;51.438;5.470;2023-08-24T12:15:47;7.43;;;4.40;;
13720;SDS011;6932;51.438;5.470;2023-08-24T12:18:15;6.10;;;3.78;;
13720;SDS011;6932;51.438;5.470;2023-08-24T12:20:41;7.85;;;3.80;;
13720;SDS011;6932;51.438;5.470;2023-08-24T12:23:10;7.50;;;4.20;;
13720;SDS011;6932;51.438;5.470;2023-08-24T12:25:37;8.57;;;4.28;;
13720;SDS011;6932;51.438;5.470;2023-08-24T12:28:08;5.35;;;3.72;;
13720;SDS011;6932;51.438;5.470;2023-08-24T12:35:53;7.65;;;3.88;;
13720;SDS011;6932;51.438;5.470;2023-08-24T12:38:20;6.60;;;3.90;;
13720;SDS011;6932;51.438;5.470;2023-08-24T12:40:48;8.93;;;4.00;;
13720;SDS011;6932;51.438;5.470;2023-08-24T12:43:14;6.55;;;3.97;;
13720;SDS011;6932;51.438;5.470;2023-08-24T12:45:40;6.05;;;3.70;;
13720;SDS011;6932;51.438;5.470;2023-08-24T12:48:07;6.55;;;3.80;;
13720;SDS011;6932;51.438;5.470;2023-08-24T12:50:34;6.63;;;3.97;;
13720;SDS011;6932;51.438;5.470;2023-08-24T12:53:00;6.25;;;3.20;;
13720;SDS011;6932;51.438;5.470;2023-08-24T12:55:27;4.35;;;3.17;;
13720;SDS011;6932;51.438;5.470;2023-08-24T12:57:54;4.85;;;3.22;;
13720;SDS011;6932;51.438;5.470;2023-08-24T13:00:20;4.82;;;2.80;;
13720;SDS011;6932;51.438;5.470;2023-08-24T13:02:47;6.43;;;2.83;;
13720;SDS011;6932;51.438;5.470;2023-08-24T13:05:14;5.85;;;3.03;;
13720;SDS011;6932;51.438;5.470;2023-08-24T13:07:40;5.50;;;3.25;;
13720;SDS011;6932;51.438;5.470;2023-08-24T13:10:06;7.65;;;3.00;;
13720;SDS011;6932;51.438;5.470;2023-08-24T13:12:32;4.90;;;3.00;;
13720;SDS011;6932;51.438;5.470;2023-08-24T13:14:59;4.65;;;2.97;;
13720;SDS011;6932;51.438;5.470;2023-08-24T13:17:27;5.82;;;3.33;;
13720;SDS011;6932;51.438;5.470;2023-08-24T13:19:55;6.45;;;3.10;;
13720;SDS011;6932;51.438;5.470;2023-08-24T13:22:21;5.68;;;3.00;;
13720;SDS011;6932;51.438;5.470;2023-08-24T13:24:46;5.63;;;3.00;;
13720;SDS011;6932;51.438;5.470;2023-08-24T13:27:12;7.32;;;3.28;;
13720;SDS011;6932;51.438;5.470;2023-08-24T13:29:38;7.07;;;3.33;;
13720;SDS011;6932;51.438;5.470;2023-08-24T13:32:05;6.97;;;3.67;;
13720;SDS011;6932;51.438;5.470;2023-08-24T13:34:31;7.85;;;3.40;;
13720;SDS011;6932;51.438;5.470;2023-08-24T13:36:58;5.60;;;2.90;;
13720;SDS011;6932;51.438;5.470;2023-08-24T13:39:27;6.35;;;2.85;;
13720;SDS011;6932;51.438;5.470;2023-08-24T13:41:57;4.30;;;2.92;;
13720;SDS011;6932;51.438;5.470;2023-08-24T13:44:24;6.25;;;3.00;;
13720;SDS011;6932;51.438;5.470;2023-08-24T13:46:50;6.53;;;3.03;;
13720;SDS011;6932;51.438;5.470;2023-08-24T13:49:19;6.00;;;2.80;;
13720;SDS011;6932;51.438;5.470;2023-08-24T13:51:46;6.72;;;3.10;;
13720;SDS011;6932;51.438;5.470;2023-08-24T13:54:18;7.20;;;3.08;;
13720;SDS011;6932;51.438;5.470;2023-08-24T13:56:46;5.85;;;3.00;;
13720;SDS011;6932;51.438;5.470;2023-08-24T13:59:14;6.45;;;2.80;;
13720;SDS011;6932;51.438;5.470;2023-08-24T14:01:41;5.78;;;2.70;;
13720;SDS011;6932;51.438;5.470;2023-08-24T14:04:07;4.40;;;2.67;;
13720;SDS011;6932;51.438;5.470;2023-08-24T14:06:33;4.63;;;2.78;;
13720;SDS011;6932;51.438;5.470;2023-08-24T14:09:01;4.75;;;2.60;;
13720;SDS011;6932;51.438;5.470;2023-08-24T14:11:29;4.18;;;2.45;;
13720;SDS011;6932;51.438;5.470;2023-08-24T14:13:55;4.97;;;2.50;;
13720;SDS011;6932;51.438;5.470;2023-08-24T14:16:22;4.72;;;2.58;;
13720;SDS011;6932;51.438;5.470;2023-08-24T14:18:48;3.72;;;2.40;;
13720;SDS011;6932;51.438;5.470;2023-08-24T14:21:15;4.90;;;2.38;;
13720;SDS011;6932;51.438;5.470;2023-08-24T14:23:40;4.28;;;2.50;;
13720;SDS011;6932;51.438;5.470;2023-08-24T14:26:07;4.47;;;2.50;;
13720;SDS011;6932;51.438;5.470;2023-08-24T14:28:53;4.68;;;2.40;;
13720;SDS011;6932;51.438;5.470;2023-08-24T14:31:22;5.63;;;2.40;;
13720;SDS011;6932;51.438;5.470;2023-08-24T14:33:50;4.32;;;2.40;;
13720;SDS011;6932;51.438;5.470;2023-08-24T14:36:17;2.83;;;2.30;;
13720;SDS011;6932;51.438;5.470;2023-08-24T14:38:45;5.93;;;2.60;;
13720;SDS011;6932;51.438;5.470;2023-08-24T14:41:12;4.63;;;2.40;;
13720;SDS011;6932;51.438;5.470;2023-08-24T14:43:39;5.50;;;2.65;;
13720;SDS011;6932;51.438;5.470;2023-08-24T14:46:07;4.45;;;2.42;;
13720;SDS011;6932;51.438;5.470;2023-08-24T14:48:34;4.00;;;2.33;;
13720;SDS011;6932;51.438;5.470;2023-08-24T14:51:00;5.22;;;2.70;;
13720;SDS011;6932;51.438;5.470;2023-08-24T14:53:27;5.43;;;2.28;;
13720;SDS011;6932;51.438;5.470;2023-08-24T14:55:54;4.80;;;2.30;;
13720;SDS011;6932;51.438;5.470;2023-08-24T14:58:21;3.97;;;2.25;;
13720;SDS011;6932;51.438;5.470;2023-08-24T15:00:48;4.03;;;2.17;;
13720;SDS011;6932;51.438;5.470;2023-08-24T15:03:16;4.70;;;2.20;;
13720;SDS011;6932;51.438;5.470;2023-08-24T15:05:44;4.70;;;2.03;;
13720;SDS011;6932;51.438;5.470;2023-08-24T15:08:21;3.05;;;2.03;;
13720;SDS011;6932;51.438;5.470;2023-08-24T15:10:48;4.00;;;2.00;;
13720;SDS011;6932;51.438;5.470;2023-08-24T15:13:14;3.33;;;1.85;;
13720;SDS011;6932;51.438;5.470;2023-08-24T15:15:40;2.67;;;1.92;;
13720;SDS011;6932;51.438;5.470;2023-08-24T15:18:06;3.20;;;1.80;;
13720;SDS011;6932;51.438;5.470;2023-08-24T15:20:32;4.18;;;1.77;;